Time;durP1;ratioP1;P1;durP2;ratioP2;P2;SDS_P1;SDS_P2;PMS_P1;PMS_P2;Temp;Humidity;BMP_temperature;BMP_pressure;BME280_temperature;BME280_humidity;BME280_pressure;Samples;Min_cycle;Max_cycle;Signal;HPM_P1;HPM_P2
2023/12/21 00:01:35;;;;;;;5.17;1.70;;;;;;;5.66;64.43;96050.06;5002747;28;20203;-71
2023/12/21 00:04:01;;;;;;;3.13;1.70;;;;;;;5.59;64.76;96051.16;5003329;28;20256;-70
2023/12/21 00:06:27;;;;;;;5.67;2.40;;;;;;;5.70;64.22;96050.84;5004255;28;20439;-70
2023/12/21 00:08:52;;;;;;;6.00;2.30;;;;;;;5.63;64.00;96055.38;5006278;28;20434;-69
2023/12/21 00:11:18;;;;;;;4.40;3.33;;;;;;;5.61;65.05;96053.72;5005303;28;20204;-70
2023/12/21 00:13:44;;;;;;;7.43;4.70;;;;;;;5.58;64.79;96049.47;5009458;28;20173;-70
2023/12/21 00:16:09;;;;;;;2.70;1.90;;;;;;;5.54;64.67;96047.84;5003547;28;20647;-70
2023/12/21 00:18:35;;;;;;;5.80;2.53;;;;;;;5.49;64.68;96034.97;5008710;28;20427;-69
2023/12/21 00:21:00;;;;;;;2.50;1.60;;;;;;;5.65;64.64;96043.19;5000182;28;21007;-70
2023/12/21 00:23:26;;;;;;;2.73;1.90;;;;;;;5.63;64.08;96037.16;5007860;28;20690;-70
2023/12/21 00:25:51;;;;;;;2.10;1.37;;;;;;;5.58;64.48;96030.41;5006428;28;20221;-70
2023/12/21 00:28:17;;;;;;;5.47;1.80;;;;;;;5.69;64.19;96037.00;5006139;28;20176;-71
2023/12/21 00:30:42;;;;;;;1.80;1.60;;;;;;;5.58;64.33;96033.00;5004163;28;20183;-70
2023/12/21 00:33:08;;;;;;;2.67;1.50;;;;;;;5.82;63.30;96037.44;5004658;28;20196;-70
2023/12/21 00:35:33;;;;;;;3.47;1.80;;;;;;;5.77;63.15;96026.34;5005982;28;20176;-69
2023/12/21 00:38:00;;;;;;;2.60;1.50;;;;;;;5.77;63.38;96030.69;5006578;28;20184;-69
2023/12/21 00:40:25;;;;;;;1.67;1.57;;;;;;;5.75;63.22;96022.06;5006137;28;20176;-69
2023/12/21 00:42:51;;;;;;;4.63;1.50;;;;;;;5.79;63.30;96015.84;5003036;28;20485;-69
2023/12/21 00:45:16;;;;;;;5.00;1.80;;;;;;;5.75;63.24;96009.91;5004668;28;20176;-70
2023/12/21 00:47:42;;;;;;;5.00;2.17;;;;;;;5.77;62.84;96007.25;5006456;28;20271;-69
2023/12/21 00:50:08;;;;;;;1.80;1.53;;;;;;;5.68;63.40;96013.59;5005003;28;20631;-70
2023/12/21 00:52:33;;;;;;;5.47;1.87;;;;;;;5.76;62.96;96010.75;5003766;28;20200;-69
2023/12/21 00:54:58;;;;;;;4.13;1.60;;;;;;;5.83;63.19;95996.63;5005533;28;20188;-70
2023/12/21 00:57:24;;;;;;;4.57;1.73;;;;;;;5.77;63.29;96005.50;5005632;28;20302;-70
2023/12/21 00:59:49;;;;;;;4.77;1.77;;;;;;;5.80;63.42;95992.38;5005431;28;20176;-68
2023/12/21 01:02:14;;;;;;;4.63;2.03;;;;;;;5.79;63.19;96008.91;5003472;28;20266;-68
2023/12/21 01:04:40;;;;;;;6.00;1.53;;;;;;;5.66;63.60;96005.81;4988093;28;20558;-70
2023/12/21 01:07:05;;;;;;;3.33;1.80;;;;;;;5.77;63.81;96004.66;5005931;28;20215;-70
2023/12/21 01:09:31;;;;;;;2.93;1.73;;;;;;;5.76;63.42;96008.13;5003677;28;20271;-69
2023/12/21 01:11:57;;;;;;;3.50;1.83;;;;;;;5.73;63.71;95996.91;5002893;28;20232;-70
2023/12/21 01:14:22;;;;;;;1.77;1.40;;;;;;;5.70;64.17;95997.03;5006041;28;20183;-70
2023/12/21 01:16:48;;;;;;;4.03;1.97;;;;;;;5.71;64.31;95993.50;5005833;28;20180;-70
2023/12/21 01:19:14;;;;;;;2.27;1.50;;;;;;;5.57;64.72;95997.44;5005775;28;20494;-69
2023/12/21 01:21:39;;;;;;;4.03;1.87;;;;;;;5.70;64.50;95996.19;5005314;28;20242;-70
2023/12/21 01:24:05;;;;;;;3.87;1.40;;;;;;;5.77;64.24;95995.09;5006905;28;20212;-70
2023/12/21 01:26:30;;;;;;;1.90;1.43;;;;;;;5.74;64.54;95990.00;5004146;28;20275;-70
2023/12/21 01:28:56;;;;;;;2.00;1.80;;;;;;;5.77;64.47;95981.22;5007110;28;20895;-70
2023/12/21 01:31:21;;;;;;;2.57;1.50;;;;;;;5.73;64.74;95996.91;5005577;28;20200;-69
2023/12/21 01:33:47;;;;;;;2.13;1.73;;;;;;;5.65;65.15;95993.72;5006645;28;20176;-70
2023/12/21 01:36:12;;;;;;;2.83;1.70;;;;;;;5.64;66.13;95992.00;5005962;28;20283;-70
2023/12/21 01:38:37;;;;;;;2.23;1.63;;;;;;;5.73;66.24;95978.69;5006424;28;20207;-70
2023/12/21 01:41:03;;;;;;;3.50;1.70;;;;;;;5.65;66.68;95982.47;5005579;28;20180;-70
2023/12/21 01:43:28;;;;;;;1.50;1.40;;;;;;;5.76;66.46;95971.69;5004732;28;20242;-70
2023/12/21 01:45:56;;;;;;;2.70;1.70;;;;;;;5.63;66.99;95982.50;5006199;28;20546;-69
2023/12/21 01:48:22;;;;;;;2.50;1.60;;;;;;;5.66;67.06;95989.34;5005547;28;20188;-71
2023/12/21 01:50:48;;;;;;;3.17;1.70;;;;;;;5.54;67.34;95981.94;5005429;28;20423;-69
2023/12/21 01:53:15;;;;;;;5.43;2.03;;;;;;;5.66;67.28;95977.19;5005182;28;20196;-70
2023/12/21 01:55:41;;;;;;;2.17;1.87;;;;;;;5.65;67.38;95975.50;5003898;28;20439;-70
2023/12/21 01:58:08;;;;;;;2.00;1.77;;;;;;;5.74;67.37;95971.75;5004559;28;21255;-69
2023/12/21 02:00:34;;;;;;;1.90;1.70;;;;;;;5.69;67.33;95968.44;5005078;28;20466;-69
2023/12/21 02:03:00;;;;;;;3.70;1.80;;;;;;;5.65;68.03;95954.66;5003526;28;20470;-68
2023/12/21 02:05:26;;;;;;;1.90;1.63;;;;;;;5.68;67.84;95949.34;5004256;28;20435;-70
2023/12/21 02:07:51;;;;;;;2.67;2.13;;;;;;;5.68;67.85;95935.50;5004013;28;20443;-70
2023/12/21 02:10:17;;;;;;;3.23;2.00;;;;;;;5.57;68.02;95938.44;5004390;28;20183;-70
2023/12/21 02:12:42;;;;;;;4.77;2.10;;;;;;;5.56;68.17;95944.53;5003299;28;20203;-69
2023/12/21 02:15:08;;;;;;;5.20;1.87;;;;;;;5.50;68.94;95943.00;5004086;28;20234;-69
2023/12/21 02:17:35;;;;;;;3.83;2.10;;;;;;;5.50;68.60;95934.31;5005574;28;20176;-69
2023/12/21 02:20:01;;;;;;;2.27;2.07;;;;;;;5.63;68.45;95929.59;5005068;28;20454;-69
2023/12/21 02:22:28;;;;;;;2.53;1.53;;;;;;;5.77;67.96;95929.16;5004755;28;20486;-70
2023/12/21 02:24:55;;;;;;;3.50;1.50;;;;;;;5.77;67.71;95922.19;5004430;28;20168;-70
2023/12/21 02:27:20;;;;;;;1.90;1.47;;;;;;;5.75;67.60;95916.19;5004529;28;20438;-70
2023/12/21 02:29:46;;;;;;;2.93;2.07;;;;;;;5.67;68.16;95910.34;5004839;28;21219;-70
2023/12/21 02:32:11;;;;;;;2.17;1.83;;;;;;;5.72;67.75;95911.06;5005908;28;20200;-70
2023/12/21 02:34:36;;;;;;;2.00;1.50;;;;;;;5.77;67.59;95900.50;5005224;28;21313;-70
2023/12/21 02:37:02;;;;;;;6.40;1.90;;;;;;;5.61;68.45;95900.16;5000388;28;20188;-70
2023/12/21 02:39:27;;;;;;;4.00;3.00;;;;;;;5.72;68.27;95911.06;5004650;28;20172;-70
2023/12/21 02:41:54;;;;;;;10.97;1.60;;;;;;;5.73;67.99;95902.34;4997009;28;20226;-70
2023/12/21 02:44:19;;;;;;;3.10;2.03;;;;;;;5.83;67.66;95889.88;5005525;28;20313;-70
2023/12/21 02:46:44;;;;;;;1.93;1.57;;;;;;;5.67;68.28;95887.78;5004080;28;20514;-70
2023/12/21 02:49:10;;;;;;;1.70;1.60;;;;;;;5.61;68.64;95887.97;5004766;28;20184;-70
2023/12/21 02:51:35;;;;;;;3.23;1.80;;;;;;;5.59;68.82;95878.53;5004974;28;20239;-70
2023/12/21 02:54:00;;;;;;;4.27;1.90;;;;;;;5.69;68.59;95866.91;5004149;28;20273;-70
2023/12/21 02:56:26;;;;;;;5.63;1.63;;;;;;;5.78;68.53;95865.75;5003791;28;20703;-70
2023/12/21 02:58:51;;;;;;;6.13;1.80;;;;;;;5.71;68.41;95868.53;5005509;28;20231;-70
2023/12/21 03:01:17;;;;;;;3.17;1.63;;;;;;;5.81;68.19;95870.84;5000339;28;20192;-70
2023/12/21 03:03:42;;;;;;;3.80;1.80;;;;;;;5.75;68.77;95874.53;5002293;28;20622;-70
2023/12/21 03:06:07;;;;;;;3.93;2.23;;;;;;;5.76;68.29;95864.94;5004850;28;20188;-69
2023/12/21 03:08:33;;;;;;;2.50;1.73;;;;;;;5.73;68.50;95847.69;5004916;28;20214;-70
2023/12/21 03:10:59;;;;;;;3.40;2.33;;;;;;;5.66;68.52;95841.81;5002329;28;20184;-68
2023/12/21 03:13:24;;;;;;;1.90;1.60;;;;;;;5.56;69.30;95840.44;5003765;28;20427;-70
2023/12/21 03:15:50;;;;;;;3.70;1.90;;;;;;;5.60;69.42;95816.03;5004717;28;20564;-70
2023/12/21 03:18:15;;;;;;;3.00;1.97;;;;;;;5.60;69.05;95812.53;5005414;28;20187;-70
2023/12/21 03:20:41;;;;;;;2.43;1.97;;;;;;;5.51;69.37;95800.72;5003836;28;20239;-71
2023/12/21 03:23:06;;;;;;;4.20;1.50;;;;;;;5.54;69.52;95798.00;4999727;28;20241;-69
2023/12/21 03:25:31;;;;;;;6.60;2.03;;;;;;;5.71;69.07;95782.63;5002606;28;20176;-70
2023/12/21 03:27:57;;;;;;;1.70;1.50;;;;;;;5.75;68.52;95775.59;5004571;28;20694;-70
2023/12/21 03:30:22;;;;;;;1.70;1.40;;;;;;;5.61;69.14;95763.03;5002185;28;20222;-70
2023/12/21 03:32:49;;;;;;;2.07;1.70;;;;;;;5.62;69.05;95777.78;5004603;28;20333;-70
2023/12/21 03:35:15;;;;;;;2.00;1.80;;;;;;;5.70;68.80;95785.31;5004132;28;20454;-68
2023/12/21 03:37:40;;;;;;;2.50;1.60;;;;;;;5.75;68.80;95782.56;5002912;28;20183;-70
2023/12/21 03:40:07;;;;;;;1.60;1.50;;;;;;;5.73;68.48;95775.63;5002420;28;20184;-70
2023/12/21 03:42:32;;;;;;;2.00;1.80;;;;;;;5.69;68.50;95776.66;5003268;28;20791;-69
2023/12/21 03:44:58;;;;;;;2.03;1.70;;;;;;;5.57;69.38;95774.47;5004158;28;20435;-69
2023/12/21 03:47:23;;;;;;;2.80;1.40;;;;;;;5.79;68.54;95774.59;5006186;28;20263;-69
2023/12/21 03:49:48;;;;;;;1.97;1.80;;;;;;;5.76;67.95;95773.81;5008085;28;20188;-68
2023/12/21 03:52:15;;;;;;;2.90;1.80;;;;;;;5.76;68.41;95768.63;5006772;28;20210;-68
2023/12/21 03:54:40;;;;;;;2.00;1.80;;;;;;;5.77;68.36;95779.00;5007761;28;20300;-70
2023/12/21 03:57:06;;;;;;;2.83;1.87;;;;;;;5.77;68.68;95775.53;5007191;28;20447;-69
2023/12/21 03:59:31;;;;;;;3.00;2.43;;;;;;;5.68;68.67;95761.09;5005063;28;20290;-70
2023/12/21 04:01:57;;;;;;;1.97;1.70;;;;;;;5.71;68.95;95747.94;5007342;28;20204;-70
2023/12/21 04:04:22;;;;;;;3.67;2.27;;;;;;;5.79;68.25;95739.88;5009034;28;20208;-71
2023/12/21 04:06:47;;;;;;;2.50;2.30;;;;;;;5.80;68.36;95744.19;5008423;28;20544;-68
2023/12/21 04:09:13;;;;;;;2.10;1.90;;;;;;;5.71;68.73;95740.16;5006243;28;20179;-70
2023/12/21 04:11:38;;;;;;;2.90;2.60;;;;;;;5.73;68.68;95747.00;5007056;28;20247;-70
2023/12/21 04:14:03;;;;;;;7.17;2.33;;;;;;;5.84;68.13;95751.84;5008467;28;20180;-69
2023/12/21 04:16:29;;;;;;;4.40;2.03;;;;;;;5.78;68.34;95738.19;5008049;28;20180;-71
2023/12/21 04:18:54;;;;;;;3.03;2.13;;;;;;;5.77;68.83;95731.28;5008217;28;20184;-70
2023/12/21 04:21:20;;;;;;;3.57;2.43;;;;;;;5.86;68.27;95731.81;5006874;28;20585;-70
2023/12/21 04:23:46;;;;;;;2.90;2.37;;;;;;;5.78;68.88;95743.38;5008346;28;20258;-70
2023/12/21 04:26:18;;;;;;;3.40;2.00;;;;;;;5.76;68.81;95729.56;5006789;28;20191;-69
2023/12/21 04:28:44;;;;;;;4.83;2.27;;;;;;;5.82;68.64;95735.41;5007087;28;20508;-69
2023/12/21 04:31:09;;;;;;;4.57;2.57;;;;;;;5.84;69.16;95753.59;5007939;28;20457;-69
2023/12/21 04:33:37;;;;;;;3.70;2.23;;;;;;;5.76;68.74;95739.97;5008105;28;20892;-70
2023/12/21 04:36:03;;;;;;;3.73;3.37;;;;;;;5.71;68.95;95735.78;5007050;28;20211;-69
2023/12/21 04:38:28;;;;;;;3.03;2.00;;;;;;;5.78;68.64;95743.38;5008703;28;20512;-69
2023/12/21 04:40:54;;;;;;;2.00;1.83;;;;;;;5.80;68.63;95733.78;5006054;28;20438;-69
2023/12/21 04:43:19;;;;;;;2.10;2.00;;;;;;;5.79;68.94;95719.91;5007449;28;20233;-69
2023/12/21 04:45:45;;;;;;;3.20;1.97;;;;;;;5.68;69.14;95699.47;5004974;28;20273;-69
2023/12/21 04:48:10;;;;;;;1.93;1.73;;;;;;;5.65;70.03;95685.72;5006840;28;20188;-69
2023/12/21 04:50:35;;;;;;;1.60;1.50;;;;;;;5.84;68.66;95691.09;5006550;28;20180;-69
2023/12/21 04:53:01;;;;;;;2.90;2.10;;;;;;;5.80;68.86;95679.09;5006562;28;20365;-69
2023/12/21 04:55:26;;;;;;;2.07;1.83;;;;;;;5.82;68.82;95672.09;5006379;28;20191;-69
2023/12/21 04:57:52;;;;;;;2.33;1.90;;;;;;;5.71;69.03;95678.50;5007064;28;20327;-69
2023/12/21 05:00:17;;;;;;;2.50;2.30;;;;;;;5.75;69.17;95675.81;5005390;28;20266;-70
2023/12/21 05:02:42;;;;;;;2.57;2.17;;;;;;;5.78;68.80;95666.13;5008065;28;20207;-70
2023/12/21 05:05:08;;;;;;;2.17;1.97;;;;;;;5.71;69.26;95686.31;5007234;28;20672;-70
2023/12/21 05:07:33;;;;;;;4.77;2.10;;;;;;;5.75;69.00;95676.66;5007521;28;20254;-70
2023/12/21 05:10:00;;;;;;;3.60;2.00;;;;;;;5.74;69.06;95669.78;5006178;28;20666;-70
2023/12/21 05:12:26;;;;;;;2.40;2.00;;;;;;;5.78;68.85;95673.09;5005539;28;21110;-69
2023/12/21 05:14:52;;;;;;;2.30;1.33;;;;;;;5.69;69.56;95658.66;5005733;28;20489;-69
2023/12/21 05:17:18;;;;;;;1.87;1.27;;;;;;;5.75;68.87;95637.59;5007335;28;20187;-69
2023/12/21 05:19:44;;;;;;;2.43;1.80;;;;;;;5.99;68.37;95627.22;5005784;28;20191;-70
2023/12/21 05:22:09;;;;;;;1.83;1.40;;;;;;;5.91;68.98;95635.28;5004374;28;20203;-70
2023/12/21 05:24:40;;;;;;;2.07;1.67;;;;;;;5.89;68.84;95624.06;5003158;28;20558;-69
2023/12/21 05:27:06;;;;;;;6.83;2.10;;;;;;;5.86;69.13;95634.63;5008005;28;20196;-69
2023/12/21 05:29:31;;;;;;;1.40;1.30;;;;;;;5.76;69.40;95636.69;5009200;28;20750;-69
2023/12/21 05:31:57;;;;;;;2.30;1.70;;;;;;;5.87;69.60;95626.72;5012088;28;20208;-69
2023/12/21 05:34:22;;;;;;;2.33;1.97;;;;;;;5.82;69.93;95640.84;5019477;28;20172;-70
2023/12/21 05:36:48;;;;;;;2.67;1.90;;;;;;;5.88;69.44;95628.44;5014157;28;20192;-69
2023/12/21 05:39:13;;;;;;;2.13;1.87;;;;;;;5.89;69.55;95637.09;5007136;28;20176;-69
2023/12/21 05:41:39;;;;;;;1.87;1.67;;;;;;;5.94;69.55;95630.00;5005650;28;20202;-69
2023/12/21 05:44:04;;;;;;;3.53;1.77;;;;;;;5.78;69.53;95631.44;5006972;28;20791;-69
2023/12/21 05:46:30;;;;;;;2.20;1.30;;;;;;;5.87;69.40;95620.69;5007676;28;20176;-69
2023/12/21 05:48:55;;;;;;;8.60;5.03;;;;;;;5.97;69.22;95621.22;5006817;28;20235;-69
2023/12/21 05:51:20;;;;;;;1.60;1.17;;;;;;;5.96;68.99;95609.09;5006087;28;20207;-68
2023/12/21 05:53:46;;;;;;;1.70;1.30;;;;;;;6.00;69.01;95595.03;5006063;28;20181;-68
2023/12/21 05:56:11;;;;;;;4.47;1.30;;;;;;;5.92;69.31;95605.72;5006336;28;20188;-69
2023/12/21 05:58:36;;;;;;;3.73;1.80;;;;;;;5.98;69.13;95596.88;5005963;28;20172;-70
2023/12/21 06:01:04;;;;;;;2.40;1.43;;;;;;;5.96;68.85;95611.72;5005094;28;20183;-70
2023/12/21 06:03:29;;;;;;;1.90;1.63;;;;;;;5.92;69.68;95597.91;5005185;28;20210;-70
2023/12/21 06:05:55;;;;;;;3.43;1.77;;;;;;;5.91;69.68;95617.06;5007307;28;20533;-70
2023/12/21 06:08:20;;;;;;;1.60;1.43;;;;;;;6.02;69.56;95611.47;5006754;28;20187;-70
2023/12/21 06:10:46;;;;;;;3.77;2.03;;;;;;;5.97;69.68;95614.22;5005157;28;20215;-70
2023/12/21 06:13:11;;;;;;;2.40;2.00;;;;;;;5.97;69.68;95610.78;5003690;28;20266;-70
2023/12/21 06:15:36;;;;;;;2.70;1.80;;;;;;;5.94;69.54;95611.75;5006508;28;20742;-68
2023/12/21 06:18:02;;;;;;;8.03;2.30;;;;;;;5.91;69.97;95615.31;5005739;28;20203;-70
2023/12/21 06:20:29;;;;;;;3.60;2.20;;;;;;;6.01;69.75;95600.19;5005582;28;20184;-71
2023/12/21 06:22:54;;;;;;;2.60;2.30;;;;;;;6.09;69.77;95603.34;5006341;28;20212;-69
2023/12/21 06:25:19;;;;;;;5.30;2.70;;;;;;;6.04;69.50;95610.47;5005312;28;20454;-70
2023/12/21 06:27:47;;;;;;;2.40;1.70;;;;;;;5.94;70.50;95603.94;5004122;28;20184;-69
2023/12/21 06:30:12;;;;;;;16.43;2.80;;;;;;;6.06;69.57;95593.03;5002737;28;20176;-70
2023/12/21 06:32:38;;;;;;;3.80;2.30;;;;;;;6.17;69.37;95591.78;5004944;28;20509;-70
2023/12/21 06:35:03;;;;;;;3.83;2.60;;;;;;;6.12;69.38;95576.34;4999657;28;20193;-70
2023/12/21 06:37:29;;;;;;;4.07;2.43;;;;;;;6.04;69.51;95570.56;5004586;28;20185;-71
2023/12/21 06:39:54;;;;;;;3.77;2.33;;;;;;;6.02;70.09;95562.81;5005662;28;20251;-70
2023/12/21 06:42:22;;;;;;;3.57;2.20;;;;;;;6.14;69.32;95549.31;5004598;28;20199;-70
2023/12/21 06:44:47;;;;;;;3.57;2.93;;;;;;;6.10;69.55;95552.97;4997717;28;20494;-70
2023/12/21 06:47:12;;;;;;;2.97;2.67;;;;;;;6.18;69.34;95560.47;5004136;28;20435;-70
2023/12/21 06:49:38;;;;;;;6.20;2.70;;;;;;;6.08;69.55;95561.75;5000170;28;20796;-70
2023/12/21 06:52:03;;;;;;;3.27;2.70;;;;;;;6.07;69.12;95553.09;5000396;28;20208;-70
2023/12/21 06:54:28;;;;;;;3.00;2.67;;;;;;;6.12;69.26;95551.16;5005059;28;20562;-70
2023/12/21 06:56:54;;;;;;;4.93;2.93;;;;;;;6.23;68.61;95537.66;5003445;28;20689;-70
2023/12/21 06:59:19;;;;;;;5.20;2.90;;;;;;;6.18;68.51;95534.41;5005063;28;20287;-70
2023/12/21 07:01:45;;;;;;;3.80;2.83;;;;;;;6.19;68.86;95537.84;5004465;28;20200;-70
2023/12/21 07:04:11;;;;;;;6.37;3.23;;;;;;;6.18;68.90;95544.00;5005243;28;20802;-70
2023/12/21 07:06:37;;;;;;;6.13;2.90;;;;;;;6.10;69.00;95537.31;5004794;28;20647;-70
2023/12/21 07:09:02;;;;;;;39.27;4.93;;;;;;;6.09;69.36;95540.81;5004914;28;20470;-71
2023/12/21 07:11:27;;;;;;;3.23;2.93;;;;;;;6.14;69.06;95533.69;5002034;28;20215;-70
2023/12/21 07:13:54;;;;;;;7.77;3.10;;;;;;;6.13;69.18;95520.72;5005761;28;20697;-70
2023/12/21 07:16:19;;;;;;;3.93;2.87;;;;;;;6.14;69.11;95517.19;5003251;28;20184;-70
2023/12/21 07:18:45;;;;;;;3.00;2.77;;;;;;;6.19;69.41;95522.22;5003319;28;20919;-70
2023/12/21 07:21:10;;;;;;;3.30;2.80;;;;;;;6.27;68.66;95514.97;5003521;28;20188;-69
2023/12/21 07:23:36;;;;;;;7.17;2.40;;;;;;;6.18;69.00;95503.16;5005139;28;20212;-69
2023/12/21 07:26:01;;;;;;;3.23;2.77;;;;;;;6.27;68.87;95507.13;5004842;28;20187;-69
2023/12/21 07:28:28;;;;;;;2.80;2.57;;;;;;;6.34;68.79;95509.41;5004543;28;20984;-69
2023/12/21 07:30:54;;;;;;;3.20;2.60;;;;;;;6.25;68.82;95514.16;5005802;28;20187;-70
2023/12/21 07:33:20;;;;;;;3.87;2.17;;;;;;;6.31;68.76;95503.50;5004655;28;20533;-70
2023/12/21 07:35:45;;;;;;;8.33;2.40;;;;;;;6.25;68.79;95508.97;5005117;28;21334;-70
2023/12/21 07:38:10;;;;;;;2.83;2.00;;;;;;;6.22;69.17;95499.50;5003678;28;20195;-70
2023/12/21 07:40:36;;;;;;;10.40;2.80;;;;;;;6.25;69.17;95490.72;4998781;28;20193;-70
2023/12/21 07:43:01;;;;;;;3.10;2.00;;;;;;;6.35;68.52;95505.03;5004967;28;20216;-69
2023/12/21 07:45:27;;;;;;;2.70;2.20;;;;;;;6.32;68.49;95479.13;5005201;28;20983;-69
2023/12/21 07:47:52;;;;;;;6.80;2.37;;;;;;;6.32;68.77;95464.34;5003299;28;20557;-68
2023/12/21 07:50:17;;;;;;;4.47;2.60;;;;;;;6.31;68.95;95467.03;5004834;28;20184;-69
2023/12/21 07:52:43;;;;;;;3.33;2.30;;;;;;;6.36;68.62;95454.66;5005177;28;20200;-69
2023/12/21 07:55:08;;;;;;;3.87;2.40;;;;;;;6.39;68.94;95462.31;5005082;28;20552;-70
2023/12/21 07:57:33;;;;;;;3.87;2.33;;;;;;;6.39;69.34;95453.66;5004806;28;20180;-70
2023/12/21 07:59:59;;;;;;;3.53;2.33;;;;;;;6.39;69.32;95461.47;5004229;28;20191;-70
2023/12/21 08:02:24;;;;;;;9.03;2.37;;;;;;;6.39;68.90;95457.13;5004650;28;20285;-70
2023/12/21 08:04:50;;;;;;;4.27;1.90;;;;;;;6.50;68.81;95454.91;5004755;28;20188;-70
2023/12/21 08:07:16;;;;;;;3.70;2.30;;;;;;;6.44;69.42;95457.75;5003292;28;20253;-68
2023/12/21 08:09:41;;;;;;;5.20;1.70;;;;;;;6.50;69.06;95461.88;4991784;28;20184;-70
2023/12/21 08:12:08;;;;;;;4.23;1.40;;;;;;;6.37;69.59;95448.50;5000058;28;20250;-69
2023/12/21 08:14:36;;;;;;;4.67;2.30;;;;;;;6.45;69.48;95443.84;5004527;28;20216;-70
2023/12/21 08:17:06;;;;;;;2.00;1.67;;;;;;;6.36;69.60;95444.22;5011225;28;20443;-69
2023/12/21 08:19:32;;;;;;;2.50;1.40;;;;;;;6.43;69.69;95450.88;5016244;28;20470;-70
2023/12/21 08:21:57;;;;;;;3.90;2.13;;;;;;;6.47;69.48;95444.63;5004299;28;21075;-70
2023/12/21 08:24:23;;;;;;;5.30;1.97;;;;;;;6.54;69.45;95432.13;5006943;28;20222;-70
2023/12/21 08:26:48;;;;;;;2.33;1.40;;;;;;;6.73;68.87;95445.22;5005491;28;20611;-70
2023/12/21 08:29:13;;;;;;;1.90;1.40;;;;;;;6.67;69.00;95438.53;5005729;28;20272;-69
2023/12/21 08:31:39;;;;;;;1.90;1.40;;;;;;;6.63;69.63;95441.31;5005205;28;20203;-70
2023/12/21 08:34:04;;;;;;;2.03;1.30;;;;;;;6.61;69.83;95441.38;5006495;28;20191;-69
2023/12/21 08:36:29;;;;;;;4.37;1.10;;;;;;;6.56;69.44;95441.59;5007879;28;20560;-69
2023/12/21 08:38:55;;;;;;;2.47;1.13;;;;;;;6.60;70.09;95431.03;5008278;28;20192;-69
2023/12/21 08:41:21;;;;;;;3.63;0.97;;;;;;;6.74;69.52;95433.88;5007190;28;20180;-70
2023/12/21 08:43:46;;;;;;;1.17;1.00;;;;;;;6.68;70.17;95428.94;5007594;28;21445;-69
2023/12/21 08:46:11;;;;;;;1.60;1.13;;;;;;;6.69;70.48;95430.66;5008784;28;20179;-68
2023/12/21 08:48:37;;;;;;;1.43;1.10;;;;;;;6.63;71.17;95425.69;5011823;28;20262;-70
2023/12/21 08:51:02;;;;;;;1.47;1.20;;;;;;;6.65;71.09;95416.03;5006804;28;20335;-68
2023/12/21 08:53:28;;;;;;;8.17;1.37;;;;;;;6.69;71.72;95401.97;5006812;28;20190;-66
2023/12/21 08:55:53;;;;;;;2.50;1.00;;;;;;;6.76;71.84;95412.03;5001450;28;20655;-70
2023/12/21 08:58:19;;;;;;;1.47;1.20;;;;;;;6.78;71.98;95397.19;5007379;28;20188;-70
2023/12/21 09:00:44;;;;;;;9.83;2.87;;;;;;;6.84;71.32;95385.63;5002558;28;20215;-67
2023/12/21 09:03:10;;;;;;;2.03;1.07;;;;;;;6.75;71.97;95379.03;5005435;28;20248;-69
2023/12/21 09:05:35;;;;;;;3.20;1.40;;;;;;;6.79;72.14;95379.75;5009086;28;21014;-68
2023/12/21 09:08:01;;;;;;;1.10;0.90;;;;;;;6.78;72.83;95380.69;5006582;28;20637;-67
2023/12/21 09:10:26;;;;;;;10.73;1.57;;;;;;;6.81;72.39;95377.94;5001897;28;20183;-68
2023/12/21 09:12:51;;;;;;;12.50;1.83;;;;;;;6.84;73.27;95388.22;5007665;28;20208;-68
2023/12/21 09:15:17;;;;;;;1.30;0.90;;;;;;;6.89;73.41;95391.47;5003774;28;20179;-67
2023/12/21 09:17:42;;;;;;;2.93;1.00;;;;;;;6.90;73.43;95390.56;5008955;28;20624;-68
2023/12/21 09:20:09;;;;;;;2.23;0.90;;;;;;;6.79;74.35;95396.25;4995137;28;20184;-68
2023/12/21 09:22:34;;;;;;;1.13;0.90;;;;;;;6.88;73.75;95381.97;5008779;28;20211;-70
2023/12/21 09:25:01;;;;;;;1.53;0.90;;;;;;;6.71;74.77;95367.09;5008079;28;20434;-68
2023/12/21 09:27:28;;;;;;;3.60;1.53;;;;;;;6.84;74.96;95377.78;5001669;28;20920;-67
2023/12/21 09:29:54;;;;;;;4.13;1.13;;;;;;;6.76;76.02;95378.16;5021305;28;20907;-69
2023/12/21 09:32:19;;;;;;;2.20;1.63;;;;;;;6.71;75.55;95380.13;5001306;28;20477;-68
2023/12/21 09:34:47;;;;;;;1.20;1.10;;;;;;;6.75;75.62;95370.38;5009603;28;20184;-70
2023/12/21 09:37:13;;;;;;;13.83;3.43;;;;;;;6.76;75.46;95370.31;5000289;28;20179;-69
2023/12/21 09:39:38;;;;;;;2.30;1.40;;;;;;;6.74;74.92;95377.38;5007634;28;20420;-69
2023/12/21 09:42:04;;;;;;;7.03;1.30;;;;;;;6.86;74.53;95362.94;5008212;28;20284;-68
2023/12/21 09:44:30;;;;;;;4.80;1.63;;;;;;;6.90;74.89;95358.44;5008202;28;20243;-69
2023/12/21 09:46:56;;;;;;;5.93;2.03;;;;;;;6.90;75.03;95345.38;5010189;28;20446;-68
2023/12/21 09:49:22;;;;;;;1.97;1.13;;;;;;;6.88;75.05;95329.81;5009271;28;20271;-68
2023/12/21 09:51:49;;;;;;;4.20;1.47;;;;;;;6.90;74.93;95309.72;5005424;28;20529;-66
2023/12/21 09:54:17;;;;;;;2.53;1.13;;;;;;;6.76;75.75;95292.09;5007344;28;20188;-69
2023/12/21 09:56:46;;;;;;;3.10;1.27;;;;;;;6.86;75.27;95274.25;5007783;28;20441;-68
2023/12/21 09:59:13;;;;;;;2.40;1.00;;;;;;;7.01;74.78;95283.09;5008711;28;20434;-69
2023/12/21 10:01:39;;;;;;;3.60;1.50;;;;;;;6.92;74.89;95291.38;4996786;28;20452;-67
2023/12/21 10:04:07;;;;;;;1.93;1.20;;;;;;;6.87;74.81;95257.69;5008166;28;20724;-67
2023/12/21 10:06:32;;;;;;;1.97;1.17;;;;;;;6.95;75.04;95268.63;5007776;28;20496;-67
2023/12/21 10:08:57;;;;;;;1.50;0.87;;;;;;;6.96;75.41;95267.69;5004953;28;20443;-69
2023/12/21 10:11:23;;;;;;;5.20;2.07;;;;;;;7.04;75.47;95259.50;5002131;28;20286;-69
2023/12/21 10:13:48;;;;;;;5.70;2.00;;;;;;;7.08;74.70;95260.19;4997757;28;20184;-68
2023/12/21 10:16:14;;;;;;;4.50;1.20;;;;;;;6.98;75.39;95244.97;5004928;28;20176;-69
2023/12/21 10:18:41;;;;;;;5.33;1.00;;;;;;;7.12;74.98;95249.53;4998917;28;20800;-68
2023/12/21 10:21:08;;;;;;;2.43;1.30;;;;;;;7.08;74.85;95241.94;5003884;28;20459;-69
2023/12/21 10:23:33;;;;;;;1.40;0.90;;;;;;;7.03;75.49;95241.31;5005330;28;20509;-69
2023/12/21 10:25:59;;;;;;;1.30;1.00;;;;;;;7.05;74.98;95240.31;4996690;28;21044;-69
2023/12/21 10:28:24;;;;;;;1.83;1.23;;;;;;;7.08;74.81;95244.53;4997614;28;20196;-69
2023/12/21 10:30:54;;;;;;;1.47;1.00;;;;;;;7.12;74.30;95240.88;5005875;28;20259;-68
2023/12/21 10:33:19;;;;;;;1.17;0.80;;;;;;;7.13;74.17;95243.38;5004787;28;20215;-68
2023/12/21 10:35:45;;;;;;;2.67;1.23;;;;;;;7.14;74.57;95218.16;5005571;28;20438;-68
2023/12/21 10:38:10;;;;;;;1.30;1.00;;;;;;;7.13;74.42;95190.38;5006469;28;20188;-67
2023/12/21 10:40:36;;;;;;;3.57;1.00;;;;;;;7.07;73.79;95183.69;5004347;28;20215;-68
2023/12/21 10:43:02;;;;;;;3.90;1.03;;;;;;;7.11;73.63;95174.81;5006502;28;20227;-68
2023/12/21 10:45:28;;;;;;;3.77;1.20;;;;;;;7.13;73.80;95170.34;5001688;28;20181;-69
2023/12/21 10:47:57;;;;;;;2.80;1.17;;;;;;;7.15;74.11;95159.84;5004810;28;20450;-68
2023/12/21 10:50:24;;;;;;;8.03;2.37;;;;;;;7.19;73.88;95161.38;5005809;28;20226;-68
2023/12/21 10:52:51;;;;;;;5.13;2.17;;;;;;;7.25;73.24;95166.25;5004245;28;20761;-68
2023/12/21 10:55:17;;;;;;;3.07;1.50;;;;;;;7.23;73.23;95160.31;5003286;28;20538;-69
2023/12/21 10:57:45;;;;;;;2.40;1.00;;;;;;;7.32;73.18;95144.19;5005189;28;20434;-68
2023/12/21 11:00:15;;;;;;;1.00;0.70;;;;;;;7.25;73.39;95132.34;4999300;28;20435;-68
2023/12/21 11:02:46;;;;;;;2.07;0.83;;;;;;;7.35;72.39;95111.88;5005990;28;20973;-69
2023/12/21 11:05:22;;;;;;;4.80;1.50;;;;;;;7.40;71.90;95094.19;5005664;28;20445;-68
2023/12/21 11:07:53;;;;;;;12.17;1.30;;;;;;;7.52;71.61;95072.66;5004171;28;21019;-68
2023/12/21 11:10:22;;;;;;;3.00;0.80;;;;;;;7.37;72.66;95063.88;4983776;28;20427;-68
2023/12/21 11:12:48;;;;;;;1.80;0.83;;;;;;;7.54;72.34;95062.16;5004340;28;20953;-69
2023/12/21 11:15:19;;;;;;;7.03;1.03;;;;;;;7.47;72.25;95061.63;5003896;28;20505;-67
2023/12/21 11:18:13;;;;;;;1.20;0.90;;;;;;;7.46;71.84;95040.81;5004038;28;20305;-69
2023/12/21 11:20:48;;;;;;;1.53;0.80;;;;;;;7.52;72.39;95033.50;5001633;28;20455;-67
2023/12/21 11:23:14;;;;;;;1.40;0.90;;;;;;;7.51;72.63;95028.34;5005356;28;20466;-67
2023/12/21 11:25:40;;;;;;;2.73;1.13;;;;;;;7.60;71.89;95025.25;5004015;28;20465;-68
2023/12/21 11:28:06;;;;;;;1.40;0.87;;;;;;;7.50;72.30;95019.69;5001926;28;20265;-69
2023/12/21 11:30:32;;;;;;;1.07;0.97;;;;;;;7.49;72.63;95012.81;4998353;28;20188;-67
2023/12/21 11:33:06;;;;;;;1.50;0.90;;;;;;;7.45;72.89;95010.44;5005069;28;20443;-67
2023/12/21 11:35:32;;;;;;;9.10;1.10;;;;;;;7.45;73.54;94992.16;5004741;28;20540;-68